Shacklefords, Virginia
Current Conditions -  °F | °C
As of 6:35 PM on Saturday 25 Oct 2014 (Local Time) from KFYJ Reporting Station
Clear Clear  
Wind Chill: 63°   Ceiling: Unl
Heat Index: 63°   Visibility: 10mi
Dew Point: 45°   Wind: 3mph
Humidity: 52%   Direction: 200°SSW
Pressure: 29.84"   Gusts: NA
Location:  37.55°N, 76.73°W
Report Text: KFYJ 252235Z AUTO 20003KT 10SM CLR 17/07 A2984 RMK AO2 T01700071
Loading
Personal Weather Stations






























Interactive Weather Map
Tropical Storm Tracking
New forecast layout! Learn more

10-Day Weather Forecast

Advertisements
Track Severe Weather on mobile